sensor_id;sensor_type;location;lat;lon;timestamp;P1;durP1;ratioP1;P2;durP2;ratioP2
30553;SDS011;17335;50.720;7.452;2023-04-25T00:02:13;11.07;;;4.03;;
30553;SDS011;17335;50.720;7.452;2023-04-25T00:04:40;10.68;;;4.00;;
30553;SDS011;17335;50.720;7.452;2023-04-25T00:07:07;9.23;;;3.97;;
30553;SDS011;17335;50.720;7.452;2023-04-25T00:09:33;10.27;;;4.22;;
30553;SDS011;17335;50.720;7.452;2023-04-25T00:12:00;9.60;;;4.05;;
30553;SDS011;17335;50.720;7.452;2023-04-25T00:14:28;11.32;;;3.97;;
30553;SDS011;17335;50.720;7.452;2023-04-25T00:16:55;12.63;;;4.78;;
30553;SDS011;17335;50.720;7.452;2023-04-25T00:19:22;12.13;;;4.78;;
30553;SDS011;17335;50.720;7.452;2023-04-25T00:21:48;9.07;;;3.72;;
30553;SDS011;17335;50.720;7.452;2023-04-25T00:24:15;10.32;;;4.13;;
30553;SDS011;17335;50.720;7.452;2023-04-25T00:26:42;13.63;;;4.10;;
30553;SDS011;17335;50.720;7.452;2023-04-25T00:29:08;11.68;;;4.22;;
30553;SDS011;17335;50.720;7.452;2023-04-25T00:31:35;17.98;;;5.20;;
30553;SDS011;17335;50.720;7.452;2023-04-25T00:34:02;9.80;;;4.53;;
30553;SDS011;17335;50.720;7.452;2023-04-25T00:36:28;13.88;;;4.68;;
30553;SDS011;17335;50.720;7.452;2023-04-25T00:38:55;11.40;;;4.97;;
30553;SDS011;17335;50.720;7.452;2023-04-25T00:41:22;9.05;;;4.20;;
30553;SDS011;17335;50.720;7.452;2023-04-25T00:43:49;12.30;;;4.07;;
30553;SDS011;17335;50.720;7.452;2023-04-25T00:46:17;10.80;;;4.15;;
30553;SDS011;17335;50.720;7.452;2023-04-25T00:48:45;6.85;;;3.53;;
30553;SDS011;17335;50.720;7.452;2023-04-25T00:51:16;12.23;;;4.47;;
30553;SDS011;17335;50.720;7.452;2023-04-25T00:53:45;8.60;;;3.92;;
30553;SDS011;17335;50.720;7.452;2023-04-25T00:56:12;9.65;;;4.47;;
30553;SDS011;17335;50.720;7.452;2023-04-25T00:58:40;8.98;;;4.07;;
30553;SDS011;17335;50.720;7.452;2023-04-25T01:01:10;11.75;;;3.85;;
30553;SDS011;17335;50.720;7.452;2023-04-25T01:03:38;9.75;;;4.25;;
30553;SDS011;17335;50.720;7.452;2023-04-25T01:06:08;11.85;;;4.20;;
30553;SDS011;17335;50.720;7.452;2023-04-25T01:08:37;9.02;;;3.55;;
30553;SDS011;17335;50.720;7.452;2023-04-25T01:11:05;13.77;;;4.28;;
30553;SDS011;17335;50.720;7.452;2023-04-25T01:13:33;12.35;;;4.65;;
30553;SDS011;17335;50.720;7.452;2023-04-25T01:16:01;10.60;;;3.90;;
30553;SDS011;17335;50.720;7.452;2023-04-25T01:18:29;9.25;;;3.78;;
30553;SDS011;17335;50.720;7.452;2023-04-25T01:20:55;10.82;;;4.55;;
30553;SDS011;17335;50.720;7.452;2023-04-25T01:23:24;11.27;;;3.40;;
30553;SDS011;17335;50.720;7.452;2023-04-25T01:25:51;12.85;;;4.63;;
30553;SDS011;17335;50.720;7.452;2023-04-25T01:28:18;9.98;;;4.15;;
30553;SDS011;17335;50.720;7.452;2023-04-25T01:30:45;14.52;;;4.47;;
30553;SDS011;17335;50.720;7.452;2023-04-25T01:33:13;15.82;;;4.47;;
30553;SDS011;17335;50.720;7.452;2023-04-25T01:35:40;11.40;;;3.53;;
30553;SDS011;17335;50.720;7.452;2023-04-25T01:38:07;14.25;;;4.40;;
30553;SDS011;17335;50.720;7.452;2023-04-25T01:40:34;11.32;;;4.05;;
30553;SDS011;17335;50.720;7.452;2023-04-25T01:43:03;10.32;;;4.35;;
30553;SDS011;17335;50.720;7.452;2023-04-25T01:45:30;11.75;;;3.75;;
30553;SDS011;17335;50.720;7.452;2023-04-25T01:47:58;7.80;;;3.60;;
30553;SDS011;17335;50.720;7.452;2023-04-25T01:50:26;17.52;;;4.90;;
30553;SDS011;17335;50.720;7.452;2023-04-25T01:52:52;15.27;;;3.80;;
30553;SDS011;17335;50.720;7.452;2023-04-25T01:55:20;8.52;;;4.15;;
30553;SDS011;17335;50.720;7.452;2023-04-25T01:57:47;8.52;;;4.05;;
30553;SDS011;17335;50.720;7.452;2023-04-25T02:00:13;12.57;;;3.70;;
30553;SDS011;17335;50.720;7.452;2023-04-25T02:02:40;10.00;;;4.05;;
30553;SDS011;17335;50.720;7.452;2023-04-25T02:05:07;9.60;;;4.13;;
30553;SDS011;17335;50.720;7.452;2023-04-25T02:07:34;8.85;;;3.80;;
30553;SDS011;17335;50.720;7.452;2023-04-25T02:10:00;17.63;;;4.22;;
30553;SDS011;17335;50.720;7.452;2023-04-25T02:12:27;8.88;;;4.30;;
30553;SDS011;17335;50.720;7.452;2023-04-25T02:14:54;9.43;;;3.85;;
30553;SDS011;17335;50.720;7.452;2023-04-25T02:17:21;9.88;;;4.20;;
30553;SDS011;17335;50.720;7.452;2023-04-25T02:19:49;8.32;;;3.72;;
30553;SDS011;17335;50.720;7.452;2023-04-25T02:22:16;9.80;;;4.20;;
30553;SDS011;17335;50.720;7.452;2023-04-25T02:24:43;10.52;;;4.50;;
30553;SDS011;17335;50.720;7.452;2023-04-25T02:27:09;8.43;;;3.97;;
30553;SDS011;17335;50.720;7.452;2023-04-25T02:29:36;9.43;;;4.20;;
30553;SDS011;17335;50.720;7.452;2023-04-25T02:32:02;8.23;;;3.90;;
30553;SDS011;17335;50.720;7.452;2023-04-25T02:34:29;17.42;;;4.25;;
30553;SDS011;17335;50.720;7.452;2023-04-25T02:36:56;13.70;;;4.15;;
30553;SDS011;17335;50.720;7.452;2023-04-25T02:39:22;12.00;;;4.20;;
30553;SDS011;17335;50.720;7.452;2023-04-25T02:41:51;9.43;;;4.85;;
30553;SDS011;17335;50.720;7.452;2023-04-25T02:44:18;9.38;;;4.07;;
30553;SDS011;17335;50.720;7.452;2023-04-25T02:46:45;14.07;;;5.30;;
30553;SDS011;17335;50.720;7.452;2023-04-25T02:49:13;9.27;;;4.35;;
30553;SDS011;17335;50.720;7.452;2023-04-25T02:51:39;11.77;;;4.60;;
30553;SDS011;17335;50.720;7.452;2023-04-25T02:54:06;16.60;;;5.28;;
30553;SDS011;17335;50.720;7.452;2023-04-25T02:56:33;11.40;;;5.07;;
30553;SDS011;17335;50.720;7.452;2023-04-25T02:58:59;16.98;;;5.05;;
30553;SDS011;17335;50.720;7.452;2023-04-25T03:01:25;17.55;;;4.95;;
30553;SDS011;17335;50.720;7.452;2023-04-25T03:03:52;11.43;;;5.22;;
30553;SDS011;17335;50.720;7.452;2023-04-25T03:06:19;15.55;;;6.88;;
30553;SDS011;17335;50.720;7.452;2023-04-25T03:08:46;18.35;;;6.07;;
30553;SDS011;17335;50.720;7.452;2023-04-25T03:11:13;14.30;;;5.28;;
30553;SDS011;17335;50.720;7.452;2023-04-25T03:13:40;16.00;;;5.13;;
30553;SDS011;17335;50.720;7.452;2023-04-25T03:16:06;20.17;;;4.50;;
30553;SDS011;17335;50.720;7.452;2023-04-25T03:18:33;21.55;;;5.28;;
30553;SDS011;17335;50.720;7.452;2023-04-25T03:20:59;17.23;;;4.45;;
30553;SDS011;17335;50.720;7.452;2023-04-25T03:23:26;17.50;;;5.03;;
30553;SDS011;17335;50.720;7.452;2023-04-25T03:25:53;16.30;;;4.95;;
30553;SDS011;17335;50.720;7.452;2023-04-25T03:28:19;18.45;;;4.47;;
30553;SDS011;17335;50.720;7.452;2023-04-25T03:30:46;17.42;;;5.18;;
30553;SDS011;17335;50.720;7.452;2023-04-25T03:33:12;12.10;;;4.63;;
30553;SDS011;17335;50.720;7.452;2023-04-25T03:35:39;14.80;;;4.57;;
30553;SDS011;17335;50.720;7.452;2023-04-25T03:38:06;16.20;;;4.63;;
30553;SDS011;17335;50.720;7.452;2023-04-25T03:40:32;17.20;;;4.75;;
30553;SDS011;17335;50.720;7.452;2023-04-25T03:42:59;11.32;;;4.90;;
30553;SDS011;17335;50.720;7.452;2023-04-25T03:45:26;20.02;;;5.05;;
30553;SDS011;17335;50.720;7.452;2023-04-25T03:47:53;20.92;;;5.00;;
30553;SDS011;17335;50.720;7.452;2023-04-25T03:50:19;25.67;;;4.65;;
30553;SDS011;17335;50.720;7.452;2023-04-25T03:52:46;18.65;;;4.55;;
30553;SDS011;17335;50.720;7.452;2023-04-25T03:55:12;12.40;;;4.38;;
30553;SDS011;17335;50.720;7.452;2023-04-25T03:57:39;9.60;;;4.30;;
30553;SDS011;17335;50.720;7.452;2023-04-25T04:00:06;15.13;;;4.72;;
30553;SDS011;17335;50.720;7.452;2023-04-25T04:02:33;10.57;;;3.58;;
30553;SDS011;17335;50.720;7.452;2023-04-25T04:05:01;10.18;;;4.22;;
30553;SDS011;17335;50.720;7.452;2023-04-25T04:07:29;15.98;;;4.20;;
30553;SDS011;17335;50.720;7.452;2023-04-25T04:09:57;10.50;;;4.43;;
30553;SDS011;17335;50.720;7.452;2023-04-25T04:12:23;13.70;;;4.63;;
30553;SDS011;17335;50.720;7.452;2023-04-25T04:14:50;17.13;;;4.65;;
30553;SDS011;17335;50.720;7.452;2023-04-25T04:17:16;11.80;;;4.38;;
30553;SDS011;17335;50.720;7.452;2023-04-25T04:19:43;15.02;;;4.88;;
30553;SDS011;17335;50.720;7.452;2023-04-25T04:22:10;13.23;;;4.38;;
30553;SDS011;17335;50.720;7.452;2023-04-25T04:24:37;15.40;;;4.13;;
30553;SDS011;17335;50.720;7.452;2023-04-25T04:27:03;16.30;;;5.30;;
30553;SDS011;17335;50.720;7.452;2023-04-25T04:29:30;13.30;;;4.20;;
30553;SDS011;17335;50.720;7.452;2023-04-25T04:31:57;15.07;;;4.78;;
30553;SDS011;17335;50.720;7.452;2023-04-25T04:34:24;20.63;;;4.70;;
30553;SDS011;17335;50.720;7.452;2023-04-25T04:36:52;22.20;;;4.53;;
30553;SDS011;17335;50.720;7.452;2023-04-25T04:39:19;16.70;;;5.03;;
30553;SDS011;17335;50.720;7.452;2023-04-25T04:41:46;13.20;;;4.57;;
30553;SDS011;17335;50.720;7.452;2023-04-25T04:44:13;13.13;;;4.45;;
30553;SDS011;17335;50.720;7.452;2023-04-25T04:46:40;19.38;;;4.60;;
30553;SDS011;17335;50.720;7.452;2023-04-25T04:49:09;14.10;;;4.22;;
30553;SDS011;17335;50.720;7.452;2023-04-25T04:51:36;11.10;;;4.28;;
30553;SDS011;17335;50.720;7.452;2023-04-25T04:54:04;18.17;;;4.95;;
30553;SDS011;17335;50.720;7.452;2023-04-25T04:56:30;14.35;;;4.50;;
30553;SDS011;17335;50.720;7.452;2023-04-25T04:58:57;17.90;;;5.07;;
30553;SDS011;17335;50.720;7.452;2023-04-25T05:01:25;15.57;;;4.65;;
30553;SDS011;17335;50.720;7.452;2023-04-25T05:03:52;14.32;;;4.75;;
30553;SDS011;17335;50.720;7.452;2023-04-25T05:06:20;16.10;;;5.47;;
30553;SDS011;17335;50.720;7.452;2023-04-25T05:08:47;21.45;;;4.57;;
30553;SDS011;17335;50.720;7.452;2023-04-25T05:11:14;11.23;;;4.60;;
30553;SDS011;17335;50.720;7.452;2023-04-25T05:13:40;11.73;;;4.68;;
30553;SDS011;17335;50.720;7.452;2023-04-25T05:16:07;17.42;;;5.10;;
30553;SDS011;17335;50.720;7.452;2023-04-25T05:18:34;14.75;;;5.25;;
30553;SDS011;17335;50.720;7.452;2023-04-25T05:21:01;11.73;;;4.88;;
30553;SDS011;17335;50.720;7.452;2023-04-25T05:23:27;12.90;;;5.57;;
30553;SDS011;17335;50.720;7.452;2023-04-25T05:25:57;12.73;;;4.95;;
30553;SDS011;17335;50.720;7.452;2023-04-25T05:28:23;18.27;;;5.57;;
30553;SDS011;17335;50.720;7.452;2023-04-25T05:30:50;11.55;;;5.97;;
30553;SDS011;17335;50.720;7.452;2023-04-25T05:33:16;23.33;;;5.30;;
30553;SDS011;17335;50.720;7.452;2023-04-25T05:35:44;13.93;;;5.05;;
30553;SDS011;17335;50.720;7.452;2023-04-25T05:38:11;14.25;;;5.13;;
30553;SDS011;17335;50.720;7.452;2023-04-25T05:40:37;15.25;;;5.07;;
30553;SDS011;17335;50.720;7.452;2023-04-25T05:43:04;17.38;;;6.07;;
30553;SDS011;17335;50.720;7.452;2023-04-25T05:45:30;18.70;;;6.68;;
30553;SDS011;17335;50.720;7.452;2023-04-25T05:47:57;17.08;;;5.82;;
30553;SDS011;17335;50.720;7.452;2023-04-25T05:50:24;20.13;;;5.05;;
30553;SDS011;17335;50.720;7.452;2023-04-25T05:52:50;13.63;;;4.57;;
30553;SDS011;17335;50.720;7.452;2023-04-25T05:55:17;22.35;;;6.22;;
30553;SDS011;17335;50.720;7.452;2023-04-25T05:57:43;13.88;;;5.00;;
30553;SDS011;17335;50.720;7.452;2023-04-25T06:00:12;25.88;;;5.95;;
30553;SDS011;17335;50.720;7.452;2023-04-25T06:02:41;25.05;;;6.20;;
30553;SDS011;17335;50.720;7.452;2023-04-25T06:05:08;20.10;;;6.78;;
30553;SDS011;17335;50.720;7.452;2023-04-25T06:07:35;16.70;;;6.00;;
30553;SDS011;17335;50.720;7.452;2023-04-25T06:10:02;21.42;;;6.47;;
30553;SDS011;17335;50.720;7.452;2023-04-25T06:12:29;22.10;;;6.30;;
30553;SDS011;17335;50.720;7.452;2023-04-25T06:14:56;19.10;;;6.55;;
30553;SDS011;17335;50.720;7.452;2023-04-25T06:17:23;20.45;;;6.47;;
30553;SDS011;17335;50.720;7.452;2023-04-25T06:19:50;16.98;;;6.72;;
30553;SDS011;17335;50.720;7.452;2023-04-25T06:22:16;17.98;;;7.70;;
30553;SDS011;17335;50.720;7.452;2023-04-25T06:24:43;30.15;;;7.78;;
30553;SDS011;17335;50.720;7.452;2023-04-25T06:27:10;18.23;;;7.30;;
30553;SDS011;17335;50.720;7.452;2023-04-25T06:29:36;20.23;;;6.88;;
30553;SDS011;17335;50.720;7.452;2023-04-25T06:32:03;23.58;;;7.20;;
30553;SDS011;17335;50.720;7.452;2023-04-25T06:34:29;18.60;;;7.20;;
30553;SDS011;17335;50.720;7.452;2023-04-25T06:36:56;27.50;;;9.90;;
30553;SDS011;17335;50.720;7.452;2023-04-25T06:39:23;21.92;;;8.43;;
30553;SDS011;17335;50.720;7.452;2023-04-25T06:41:51;20.50;;;9.07;;
30553;SDS011;17335;50.720;7.452;2023-04-25T06:44:17;22.60;;;8.27;;
30553;SDS011;17335;50.720;7.452;2023-04-25T06:46:47;24.67;;;8.38;;
30553;SDS011;17335;50.720;7.452;2023-04-25T06:49:14;21.60;;;8.15;;
30553;SDS011;17335;50.720;7.452;2023-04-25T06:51:40;20.52;;;7.63;;
30553;SDS011;17335;50.720;7.452;2023-04-25T06:54:07;22.73;;;7.85;;
30553;SDS011;17335;50.720;7.452;2023-04-25T06:56:34;17.48;;;7.57;;
30553;SDS011;17335;50.720;7.452;2023-04-25T06:59:02;23.00;;;7.93;;
30553;SDS011;17335;50.720;7.452;2023-04-25T07:01:29;23.50;;;7.85;;
30553;SDS011;17335;50.720;7.452;2023-04-25T07:03:56;27.08;;;8.18;;
30553;SDS011;17335;50.720;7.452;2023-04-25T07:06:23;20.58;;;7.75;;
30553;SDS011;17335;50.720;7.452;2023-04-25T07:08:51;28.75;;;8.68;;
30553;SDS011;17335;50.720;7.452;2023-04-25T07:11:18;17.65;;;6.93;;
30553;SDS011;17335;50.720;7.452;2023-04-25T07:13:45;23.27;;;7.70;;
30553;SDS011;17335;50.720;7.452;2023-04-25T07:16:12;20.70;;;7.40;;
30553;SDS011;17335;50.720;7.452;2023-04-25T07:18:39;18.75;;;7.65;;
30553;SDS011;17335;50.720;7.452;2023-04-25T07:21:05;18.35;;;7.50;;
30553;SDS011;17335;50.720;7.452;2023-04-25T07:23:32;21.80;;;7.38;;
30553;SDS011;17335;50.720;7.452;2023-04-25T07:25:58;21.55;;;7.63;;
30553;SDS011;17335;50.720;7.452;2023-04-25T07:28:25;16.45;;;6.95;;
30553;SDS011;17335;50.720;7.452;2023-04-25T07:30:52;18.73;;;6.70;;
30553;SDS011;17335;50.720;7.452;2023-04-25T07:33:18;21.05;;;6.80;;
30553;SDS011;17335;50.720;7.452;2023-04-25T07:35:46;19.17;;;7.35;;
30553;SDS011;17335;50.720;7.452;2023-04-25T07:38:13;18.58;;;7.22;;
30553;SDS011;17335;50.720;7.452;2023-04-25T07:40:40;17.48;;;5.68;;
30553;SDS011;17335;50.720;7.452;2023-04-25T07:43:07;13.07;;;5.28;;
30553;SDS011;17335;50.720;7.452;2023-04-25T07:45:34;17.58;;;4.57;;
30553;SDS011;17335;50.720;7.452;2023-04-25T07:48:00;28.52;;;5.00;;
30553;SDS011;17335;50.720;7.452;2023-04-25T07:50:27;8.57;;;4.38;;
30553;SDS011;17335;50.720;7.452;2023-04-25T07:52:54;16.58;;;4.75;;
30553;SDS011;17335;50.720;7.452;2023-04-25T07:55:20;12.55;;;4.50;;
30553;SDS011;17335;50.720;7.452;2023-04-25T07:57:47;11.77;;;4.28;;
30553;SDS011;17335;50.720;7.452;2023-04-25T08:00:13;13.57;;;4.18;;
30553;SDS011;17335;50.720;7.452;2023-04-25T08:02:41;13.57;;;4.25;;
30553;SDS011;17335;50.720;7.452;2023-04-25T08:05:07;13.32;;;3.65;;
30553;SDS011;17335;50.720;7.452;2023-04-25T08:07:38;15.05;;;4.22;;
30553;SDS011;17335;50.720;7.452;2023-04-25T08:10:05;19.45;;;4.57;;
30553;SDS011;17335;50.720;7.452;2023-04-25T08:12:33;9.77;;;3.88;;
30553;SDS011;17335;50.720;7.452;2023-04-25T08:15:00;10.20;;;4.15;;
30553;SDS011;17335;50.720;7.452;2023-04-25T08:17:26;14.15;;;3.92;;
30553;SDS011;17335;50.720;7.452;2023-04-25T08:19:53;18.55;;;5.18;;
30553;SDS011;17335;50.720;7.452;2023-04-25T08:22:20;10.38;;;3.65;;
30553;SDS011;17335;50.720;7.452;2023-04-25T08:24:47;12.27;;;4.30;;
30553;SDS011;17335;50.720;7.452;2023-04-25T08:27:13;18.55;;;3.88;;
30553;SDS011;17335;50.720;7.452;2023-04-25T08:29:41;11.32;;;3.65;;
30553;SDS011;17335;50.720;7.452;2023-04-25T08:32:08;12.93;;;3.90;;
30553;SDS011;17335;50.720;7.452;2023-04-25T08:34:34;12.85;;;4.20;;
30553;SDS011;17335;50.720;7.452;2023-04-25T08:37:02;8.55;;;3.60;;
30553;SDS011;17335;50.720;7.452;2023-04-25T08:39:30;15.50;;;3.63;;
30553;SDS011;17335;50.720;7.452;2023-04-25T08:41:57;11.10;;;3.78;;
30553;SDS011;17335;50.720;7.452;2023-04-25T08:44:23;9.27;;;3.55;;
30553;SDS011;17335;50.720;7.452;2023-04-25T08:46:50;10.10;;;3.30;;
30553;SDS011;17335;50.720;7.452;2023-04-25T08:49:18;17.58;;;3.17;;
30553;SDS011;17335;50.720;7.452;2023-04-25T08:51:46;12.55;;;3.72;;
30553;SDS011;17335;50.720;7.452;2023-04-25T08:54:14;10.15;;;2.95;;
30553;SDS011;17335;50.720;7.452;2023-04-25T08:57:01;12.48;;;2.55;;
30553;SDS011;17335;50.720;7.452;2023-04-25T08:59:31;10.23;;;3.05;;
30553;SDS011;17335;50.720;7.452;2023-04-25T09:01:58;11.70;;;3.10;;
30553;SDS011;17335;50.720;7.452;2023-04-25T09:04:25;16.67;;;3.65;;
30553;SDS011;17335;50.720;7.452;2023-04-25T09:06:52;8.88;;;2.95;;
30553;SDS011;17335;50.720;7.452;2023-04-25T09:09:18;15.48;;;3.13;;
30553;SDS011;17335;50.720;7.452;2023-04-25T09:11:45;9.07;;;3.10;;
30553;SDS011;17335;50.720;7.452;2023-04-25T09:14:19;7.05;;;2.95;;
30553;SDS011;17335;50.720;7.452;2023-04-25T09:19:25;12.18;;;3.00;;
30553;SDS011;17335;50.720;7.452;2023-04-25T09:22:06;13.50;;;3.28;;
30553;SDS011;17335;50.720;7.452;2023-04-25T09:27:12;10.93;;;2.90;;
30553;SDS011;17335;50.720;7.452;2023-04-25T09:29:44;13.38;;;3.00;;
30553;SDS011;17335;50.720;7.452;2023-04-25T09:32:21;7.93;;;2.70;;
30553;SDS011;17335;50.720;7.452;2023-04-25T09:34:50;11.07;;;2.80;;
30553;SDS011;17335;50.720;7.452;2023-04-25T09:37:19;12.85;;;3.10;;
30553;SDS011;17335;50.720;7.452;2023-04-25T09:39:51;11.73;;;2.90;;
30553;SDS011;17335;50.720;7.452;2023-04-25T09:42:23;8.02;;;2.97;;
30553;SDS011;17335;50.720;7.452;2023-04-25T09:44:51;15.27;;;3.00;;
30553;SDS011;17335;50.720;7.452;2023-04-25T09:47:20;10.45;;;3.47;;
30553;SDS011;17335;50.720;7.452;2023-04-25T09:49:49;17.73;;;3.55;;
30553;SDS011;17335;50.720;7.452;2023-04-25T09:52:19;9.35;;;3.00;;
30553;SDS011;17335;50.720;7.452;2023-04-25T09:54:49;14.05;;;3.28;;
30553;SDS011;17335;50.720;7.452;2023-04-25T09:57:17;11.98;;;3.42;;
30553;SDS011;17335;50.720;7.452;2023-04-25T09:59:50;9.85;;;3.97;;
30553;SDS011;17335;50.720;7.452;2023-04-25T10:02:22;15.05;;;4.07;;
30553;SDS011;17335;50.720;7.452;2023-04-25T10:04:50;11.68;;;3.47;;
30553;SDS011;17335;50.720;7.452;2023-04-25T10:07:22;11.27;;;3.40;;
30553;SDS011;17335;50.720;7.452;2023-04-25T10:09:54;13.05;;;3.33;;
30553;SDS011;17335;50.720;7.452;2023-04-25T10:12:32;12.13;;;3.53;;
30553;SDS011;17335;50.720;7.452;2023-04-25T10:15:00;9.65;;;3.53;;
30553;SDS011;17335;50.720;7.452;2023-04-25T10:17:28;13.93;;;4.10;;
30553;SDS011;17335;50.720;7.452;2023-04-25T10:19:55;16.77;;;3.53;;
30553;SDS011;17335;50.720;7.452;2023-04-25T10:22:39;14.40;;;3.55;;
30553;SDS011;17335;50.720;7.452;2023-04-25T10:25:09;12.70;;;3.38;;
30553;SDS011;17335;50.720;7.452;2023-04-25T10:27:38;11.82;;;2.80;;
30553;SDS011;17335;50.720;7.452;2023-04-25T10:30:09;10.75;;;3.10;;
30553;SDS011;17335;50.720;7.452;2023-04-25T10:32:41;9.45;;;3.28;;
30553;SDS011;17335;50.720;7.452;2023-04-25T10:35:23;8.30;;;3.13;;
30553;SDS011;17335;50.720;7.452;2023-04-25T10:37:58;14.23;;;3.25;;
30553;SDS011;17335;50.720;7.452;2023-04-25T10:40:25;14.82;;;3.65;;
30553;SDS011;17335;50.720;7.452;2023-04-25T10:42:53;9.60;;;2.58;;
30553;SDS011;17335;50.720;7.452;2023-04-25T10:45:23;4.95;;;2.42;;
30553;SDS011;17335;50.720;7.452;2023-04-25T10:47:49;6.50;;;2.45;;
30553;SDS011;17335;50.720;7.452;2023-04-25T10:50:16;10.48;;;3.15;;
30553;SDS011;17335;50.720;7.452;2023-04-25T10:52:43;11.32;;;3.30;;
30553;SDS011;17335;50.720;7.452;2023-04-25T10:55:10;13.13;;;3.05;;
30553;SDS011;17335;50.720;7.452;2023-04-25T10:57:44;10.27;;;3.13;;
30553;SDS011;17335;50.720;7.452;2023-04-25T11:00:17;9.45;;;2.72;;
30553;SDS011;17335;50.720;7.452;2023-04-25T11:02:51;8.18;;;2.25;;
30553;SDS011;17335;50.720;7.452;2023-04-25T11:07:58;10.18;;;2.75;;
30553;SDS011;17335;50.720;7.452;2023-04-25T11:10:33;8.90;;;2.35;;
30553;SDS011;17335;50.720;7.452;2023-04-25T11:13:03;12.13;;;2.83;;
30553;SDS011;17335;50.720;7.452;2023-04-25T11:15:30;9.18;;;2.80;;
30553;SDS011;17335;50.720;7.452;2023-04-25T11:17:56;8.00;;;2.90;;
30553;SDS011;17335;50.720;7.452;2023-04-25T11:20:25;15.30;;;2.47;;
30553;SDS011;17335;50.720;7.452;2023-04-25T11:22:54;6.80;;;2.33;;
30553;SDS011;17335;50.720;7.452;2023-04-25T11:25:23;5.88;;;2.20;;
30553;SDS011;17335;50.720;7.452;2023-04-25T11:27:52;11.80;;;2.58;;
30553;SDS011;17335;50.720;7.452;2023-04-25T11:30:20;10.90;;;2.10;;
30553;SDS011;17335;50.720;7.452;2023-04-25T11:32:48;7.88;;;2.50;;
30553;SDS011;17335;50.720;7.452;2023-04-25T11:35:14;7.05;;;2.67;;
30553;SDS011;17335;50.720;7.452;2023-04-25T11:37:42;10.57;;;3.05;;
30553;SDS011;17335;50.720;7.452;2023-04-25T11:40:09;6.75;;;2.50;;
30553;SDS011;17335;50.720;7.452;2023-04-25T11:42:38;8.82;;;2.50;;
30553;SDS011;17335;50.720;7.452;2023-04-25T11:45:06;7.38;;;2.08;;
30553;SDS011;17335;50.720;7.452;2023-04-25T11:47:33;7.93;;;2.55;;
30553;SDS011;17335;50.720;7.452;2023-04-25T11:50:00;11.70;;;2.40;;
30553;SDS011;17335;50.720;7.452;2023-04-25T11:52:38;6.18;;;2.17;;
30553;SDS011;17335;50.720;7.452;2023-04-25T11:55:09;10.18;;;2.70;;
30553;SDS011;17335;50.720;7.452;2023-04-25T11:57:40;10.35;;;2.45;;
30553;SDS011;17335;50.720;7.452;2023-04-25T12:00:11;10.30;;;2.55;;
30553;SDS011;17335;50.720;7.452;2023-04-25T12:02:45;12.98;;;2.67;;
30553;SDS011;17335;50.720;7.452;2023-04-25T12:05:14;9.00;;;2.38;;
30553;SDS011;17335;50.720;7.452;2023-04-25T12:07:58;6.67;;;2.60;;
30553;SDS011;17335;50.720;7.452;2023-04-25T12:10:37;9.80;;;2.53;;
30553;SDS011;17335;50.720;7.452;2023-04-25T12:13:23;10.10;;;2.53;;
30553;SDS011;17335;50.720;7.452;2023-04-25T12:18:20;5.20;;;2.00;;
30553;SDS011;17335;50.720;7.452;2023-04-25T12:20:49;9.38;;;2.20;;
30553;SDS011;17335;50.720;7.452;2023-04-25T12:23:16;10.40;;;2.63;;
30553;SDS011;17335;50.720;7.452;2023-04-25T12:25:43;9.35;;;2.17;;
30553;SDS011;17335;50.720;7.452;2023-04-25T12:28:21;11.05;;;2.05;;
30553;SDS011;17335;50.720;7.452;2023-04-25T12:33:33;8.80;;;1.83;;
30553;SDS011;17335;50.720;7.452;2023-04-25T12:36:02;6.30;;;2.22;;
30553;SDS011;17335;50.720;7.452;2023-04-25T12:38:40;6.78;;;1.70;;
30553;SDS011;17335;50.720;7.452;2023-04-25T12:41:08;11.57;;;2.95;;
30553;SDS011;17335;50.720;7.452;2023-04-25T12:43:35;11.63;;;2.85;;
30553;SDS011;17335;50.720;7.452;2023-04-25T12:46:02;4.82;;;1.83;;
30553;SDS011;17335;50.720;7.452;2023-04-25T12:48:29;4.28;;;1.77;;
30553;SDS011;17335;50.720;7.452;2023-04-25T12:50:56;6.30;;;2.00;;
30553;SDS011;17335;50.720;7.452;2023-04-25T12:53:22;10.82;;;2.35;;
30553;SDS011;17335;50.720;7.452;2023-04-25T12:55:52;6.82;;;2.13;;
30553;SDS011;17335;50.720;7.452;2023-04-25T12:58:24;7.65;;;2.10;;
30553;SDS011;17335;50.720;7.452;2023-04-25T13:00:51;10.63;;;1.92;;
30553;SDS011;17335;50.720;7.452;2023-04-25T13:03:18;7.82;;;1.95;;
30553;SDS011;17335;50.720;7.452;2023-04-25T13:05:45;10.98;;;2.10;;
30553;SDS011;17335;50.720;7.452;2023-04-25T13:08:11;9.30;;;2.05;;
30553;SDS011;17335;50.720;7.452;2023-04-25T13:10:38;5.45;;;1.80;;
30553;SDS011;17335;50.720;7.452;2023-04-25T13:13:05;4.00;;;1.80;;
30553;SDS011;17335;50.720;7.452;2023-04-25T13:15:32;4.32;;;2.47;;
30553;SDS011;17335;50.720;7.452;2023-04-25T13:17:58;5.95;;;2.00;;
30553;SDS011;17335;50.720;7.452;2023-04-25T13:20:25;4.82;;;1.75;;
30553;SDS011;17335;50.720;7.452;2023-04-25T13:22:52;5.90;;;1.75;;
30553;SDS011;17335;50.720;7.452;2023-04-25T13:25:18;8.85;;;2.42;;
30553;SDS011;17335;50.720;7.452;2023-04-25T13:27:45;6.07;;;2.05;;
30553;SDS011;17335;50.720;7.452;2023-04-25T13:30:12;9.07;;;1.90;;
30553;SDS011;17335;50.720;7.452;2023-04-25T13:32:39;4.20;;;1.88;;
30553;SDS011;17335;50.720;7.452;2023-04-25T13:35:11;2.83;;;1.60;;
30553;SDS011;17335;50.720;7.452;2023-04-25T13:37:39;8.50;;;2.20;;
30553;SDS011;17335;50.720;7.452;2023-04-25T13:40:07;3.83;;;1.70;;
30553;SDS011;17335;50.720;7.452;2023-04-25T13:42:36;7.22;;;2.00;;
30553;SDS011;17335;50.720;7.452;2023-04-25T13:45:05;4.30;;;1.98;;
30553;SDS011;17335;50.720;7.452;2023-04-25T13:47:32;6.07;;;1.70;;
30553;SDS011;17335;50.720;7.452;2023-04-25T13:50:00;5.35;;;1.90;;
30553;SDS011;17335;50.720;7.452;2023-04-25T13:52:29;7.15;;;1.73;;
30553;SDS011;17335;50.720;7.452;2023-04-25T13:54:55;7.07;;;1.70;;
30553;SDS011;17335;50.720;7.452;2023-04-25T13:57:22;4.38;;;1.77;;
30553;SDS011;17335;50.720;7.452;2023-04-25T13:59:49;5.05;;;1.98;;
30553;SDS011;17335;50.720;7.452;2023-04-25T14:02:18;6.32;;;1.70;;
30553;SDS011;17335;50.720;7.452;2023-04-25T14:04:45;5.15;;;1.63;;
30553;SDS011;17335;50.720;7.452;2023-04-25T14:07:11;5.75;;;1.45;;
30553;SDS011;17335;50.720;7.452;2023-04-25T14:09:38;6.40;;;2.03;;
30553;SDS011;17335;50.720;7.452;2023-04-25T14:12:04;6.53;;;1.90;;
30553;SDS011;17335;50.720;7.452;2023-04-25T14:14:32;6.68;;;1.90;;
30553;SDS011;17335;50.720;7.452;2023-04-25T14:16:59;4.35;;;1.48;;
30553;SDS011;17335;50.720;7.452;2023-04-25T14:19:26;5.13;;;1.90;;
30553;SDS011;17335;50.720;7.452;2023-04-25T14:21:53;10.25;;;2.00;;
30553;SDS011;17335;50.720;7.452;2023-04-25T14:24:20;9.30;;;2.22;;
30553;SDS011;17335;50.720;7.452;2023-04-25T14:26:47;6.75;;;1.70;;
30553;SDS011;17335;50.720;7.452;2023-04-25T14:29:14;3.53;;;1.70;;
30553;SDS011;17335;50.720;7.452;2023-04-25T14:31:41;5.13;;;1.90;;
30553;SDS011;17335;50.720;7.452;2023-04-25T14:34:07;5.50;;;1.60;;
30553;SDS011;17335;50.720;7.452;2023-04-25T14:36:35;4.53;;;1.80;;
30553;SDS011;17335;50.720;7.452;2023-04-25T14:39:02;5.38;;;1.67;;
30553;SDS011;17335;50.720;7.452;2023-04-25T14:41:29;5.22;;;1.60;;
30553;SDS011;17335;50.720;7.452;2023-04-25T14:43:55;7.72;;;2.25;;
30553;SDS011;17335;50.720;7.452;2023-04-25T14:46:23;11.93;;;1.70;;
30553;SDS011;17335;50.720;7.452;2023-04-25T14:48:50;5.45;;;1.60;;
30553;SDS011;17335;50.720;7.452;2023-04-25T14:51:17;4.07;;;1.60;;
30553;SDS011;17335;50.720;7.452;2023-04-25T14:53:43;5.20;;;1.40;;
30553;SDS011;17335;50.720;7.452;2023-04-25T14:56:10;5.13;;;1.42;;